createdAt,value
2023-05-23T00:03:31.596Z,8.65
2023-05-23T00:08:34.248Z,7.93
2023-05-23T00:13:36.715Z,11.10
2023-05-23T00:18:43.175Z,7.95
2023-05-23T00:23:45.760Z,10.15
2023-05-23T00:28:48.396Z,11.48
2023-05-23T00:33:51.160Z,8.27
2023-05-23T00:38:54.331Z,8.82
2023-05-23T00:43:59.950Z,10.25
2023-05-23T00:49:03.007Z,8.82
2023-05-23T00:54:06.228Z,7.40
2023-05-23T00:59:09.541Z,7.97
2023-05-23T01:04:13.675Z,7.20
2023-05-23T01:09:17.884Z,12.32
2023-05-23T01:14:30.481Z,7.68
2023-05-23T01:20:01.377Z,8.20
2023-05-23T01:25:19.109Z,8.13
2023-05-23T01:30:23.468Z,5.95
2023-05-23T01:35:27.595Z,7.60
2023-05-23T01:40:30.673Z,7.63
2023-05-23T01:45:33.803Z,7.65
2023-05-23T01:50:37.146Z,7.38
2023-05-23T01:55:41.642Z,12.27
2023-05-23T02:00:44.390Z,9.25
2023-05-23T02:05:47.502Z,9.32
2023-05-23T02:10:50.245Z,8.25
2023-05-23T02:15:52.965Z,8.80
2023-05-23T02:20:58.891Z,8.93
2023-05-23T02:26:01.430Z,6.85
2023-05-23T02:31:03.959Z,8.57
2023-05-23T02:36:06.998Z,8.63
2023-05-23T02:41:09.854Z,8.52
2023-05-23T02:46:13.738Z,7.40
2023-05-23T02:51:16.329Z,9.90
2023-05-23T02:56:18.937Z,7.68
2023-05-23T03:01:21.750Z,8.98
2023-05-23T03:06:24.476Z,9.68
2023-05-23T03:11:27.133Z,8.68
2023-05-23T03:16:29.692Z,12.68
2023-05-23T03:21:33.023Z,6.40
2023-05-23T03:26:36.573Z,8.50
2023-05-23T03:31:39.103Z,9.02
2023-05-23T03:36:41.703Z,5.32
2023-05-23T03:41:44.310Z,8.65
2023-05-23T03:46:47.069Z,8.68
2023-05-23T03:51:51.150Z,10.10
2023-05-23T03:56:53.756Z,10.05
2023-05-23T04:01:58.954Z,11.77
2023-05-23T04:07:02.632Z,9.32
2023-05-23T04:12:06.289Z,12.45
2023-05-23T04:17:09.166Z,11.57
2023-05-23T04:22:12.196Z,11.52
2023-05-23T04:27:14.880Z,11.60
2023-05-23T04:32:19.631Z,10.95
2023-05-23T04:37:26.165Z,8.13
2023-05-23T04:42:30.720Z,8.00
2023-05-23T04:47:57.125Z,6.28
2023-05-23T04:53:11.995Z,14.57
2023-05-23T04:58:15.656Z,8.98
2023-05-23T05:03:18.938Z,8.57
2023-05-23T05:08:23.542Z,9.48
2023-05-23T05:13:26.424Z,8.43
2023-05-23T05:18:31.363Z,9.70
2023-05-23T05:23:35.904Z,9.95
2023-05-23T05:28:38.721Z,10.27
2023-05-23T05:33:41.950Z,15.57
2023-05-23T05:38:48.015Z,5.00
2023-05-23T05:43:52.643Z,7.15
2023-05-23T05:48:56.200Z,8.38
2023-05-23T05:53:58.971Z,20.40
2023-05-23T05:59:01.548Z,3.85
2023-05-23T06:04:05.008Z,12.20
2023-05-23T06:09:08.465Z,7.20
2023-05-23T06:14:11.721Z,10.63
2023-05-23T06:19:18.406Z,8.93
2023-05-23T06:24:21.760Z,10.55
2023-05-23T06:29:24.810Z,13.40
2023-05-23T06:34:27.265Z,9.95
2023-05-23T06:39:29.907Z,14.25
2023-05-23T06:44:32.868Z,12.52
2023-05-23T06:49:38.127Z,10.23
2023-05-23T06:54:41.067Z,9.25
2023-05-23T06:59:44.040Z,10.57
2023-05-23T07:04:46.933Z,10.68
2023-05-23T07:09:55.947Z,11.20
2023-05-23T07:14:58.850Z,7.28
2023-05-23T07:20:02.679Z,9.40
2023-05-23T07:25:08.041Z,7.40
2023-05-23T07:30:11.197Z,6.88
2023-05-23T07:35:15.107Z,7.18
2023-05-23T07:40:17.931Z,7.28
2023-05-23T07:45:20.531Z,11.57
2023-05-23T07:50:25.696Z,6.72
2023-05-23T07:55:30.657Z,7.07
2023-05-23T08:00:34.423Z,6.90
2023-05-23T08:05:45.865Z,7.53
2023-05-23T08:10:50.320Z,11.65
2023-05-23T08:15:59.989Z,5.47
2023-05-23T08:21:06.007Z,6.90
2023-05-23T08:26:08.705Z,7.57
2023-05-23T08:31:11.699Z,5.15
2023-05-23T08:36:14.325Z,5.53
2023-05-23T08:41:26.115Z,10.07
2023-05-23T08:46:41.268Z,12.65
2023-05-23T08:51:44.490Z,4.78
2023-05-23T08:56:53.362Z,7.97
2023-05-23T09:01:57.190Z,6.75
2023-05-23T09:07:01.365Z,7.13
2023-05-23T09:12:06.211Z,9.57
2023-05-23T09:17:09.772Z,6.97
2023-05-23T09:22:13.626Z,7.40
2023-05-23T09:27:29.253Z,8.10
2023-05-23T09:32:32.014Z,7.70
2023-05-23T09:37:39.500Z,5.70
2023-05-23T09:42:46.774Z,3.90
2023-05-23T09:47:53.245Z,5.88
2023-05-23T09:52:55.828Z,4.45
2023-05-23T09:57:59.884Z,4.70
2023-05-23T10:03:13.770Z,6.65
2023-05-23T10:08:27.432Z,5.53
2023-05-23T10:13:32.372Z,6.50
2023-05-23T10:18:59.567Z,6.28
2023-05-23T10:24:04.600Z,6.00
2023-05-23T10:29:07.702Z,4.65
2023-05-23T10:34:30.085Z,4.97
2023-05-23T10:40:10.063Z,5.05
2023-05-23T10:45:24.598Z,5.18
2023-05-23T10:50:37.464Z,5.85
2023-05-23T10:55:40.445Z,5.88
2023-05-23T11:01:06.599Z,6.30
2023-05-23T11:06:33.752Z,20.83
2023-05-23T11:11:53.993Z,7.30
2023-05-23T11:16:56.621Z,5.05
2023-05-23T11:22:01.998Z,8.85
2023-05-23T11:27:05.034Z,4.68
2023-05-23T11:32:17.667Z,5.28
2023-05-23T11:37:21.385Z,4.78
2023-05-23T11:42:24.928Z,4.57
2023-05-23T11:47:27.395Z,7.38
2023-05-23T11:52:33.070Z,5.35
2023-05-23T11:57:39.785Z,5.95
2023-05-23T12:02:43.198Z,5.93
2023-05-23T12:07:47.536Z,8.60
2023-05-23T12:12:51.973Z,6.18
2023-05-23T12:17:55.749Z,7.22
2023-05-23T12:22:58.216Z,5.00
2023-05-23T12:28:01.835Z,6.78
2023-05-23T12:33:09.181Z,4.90
2023-05-23T12:38:16.566Z,8.52
2023-05-23T12:43:19.228Z,4.13
2023-05-23T12:48:21.900Z,9.68
2023-05-23T12:53:25.695Z,4.65
2023-05-23T12:58:31.097Z,11.30
2023-05-23T13:03:34.022Z,4.68
2023-05-23T13:08:36.634Z,6.40
2023-05-23T13:13:39.328Z,4.90
2023-05-23T13:18:42.143Z,7.15
2023-05-23T13:23:44.861Z,8.88
2023-05-23T13:28:47.564Z,6.30
2023-05-23T13:33:50.131Z,9.27
2023-05-23T13:38:52.694Z,11.40
2023-05-23T13:43:55.452Z,11.05
2023-05-23T13:48:57.975Z,13.63
2023-05-23T13:54:00.688Z,17.02
2023-05-23T13:59:03.317Z,13.63
2023-05-23T14:04:07.242Z,11.73
2023-05-23T14:09:10.037Z,11.73
2023-05-23T14:14:12.576Z,13.40
2023-05-23T14:19:15.155Z,10.00
2023-05-23T14:24:17.688Z,15.57
2023-05-23T14:29:20.282Z,12.98
2023-05-23T14:34:22.813Z,11.00
2023-05-23T14:39:25.782Z,11.02
2023-05-23T14:44:28.546Z,12.43
2023-05-23T14:49:31.185Z,13.45
2023-05-23T14:54:34.550Z,11.15
2023-05-23T14:59:36.997Z,12.35
2023-05-23T15:04:39.476Z,10.77
2023-05-23T15:09:42.581Z,11.27
2023-05-23T15:14:45.146Z,9.52
2023-05-23T15:19:47.862Z,9.60
2023-05-23T15:24:50.603Z,9.82
2023-05-23T15:29:53.049Z,11.85
2023-05-23T15:34:55.743Z,10.40
2023-05-23T15:39:58.255Z,10.15
2023-05-23T15:45:00.972Z,10.82
2023-05-23T15:50:03.728Z,14.35
2023-05-23T15:55:06.718Z,11.55
2023-05-23T16:00:09.805Z,13.10
2023-05-23T16:05:15.457Z,17.67
2023-05-23T16:10:18.061Z,18.80
2023-05-23T16:15:20.737Z,14.48
2023-05-23T16:20:23.285Z,18.02
2023-05-23T16:25:25.798Z,16.25
2023-05-23T16:30:28.473Z,14.27
2023-05-23T16:35:30.972Z,17.67
2023-05-23T16:40:33.493Z,14.07
2023-05-23T16:45:36.463Z,18.05
2023-05-23T16:50:39.252Z,16.48
2023-05-23T16:55:42.366Z,15.75
2023-05-23T17:00:45.180Z,15.13
2023-05-23T17:05:47.730Z,12.80
2023-05-23T17:10:50.117Z,18.42
2023-05-23T17:15:52.671Z,12.20
2023-05-23T17:20:55.116Z,20.83
2023-05-23T17:25:57.662Z,16.38
2023-05-23T17:31:00.267Z,11.98
2023-05-23T17:36:03.504Z,12.65
2023-05-23T17:41:05.997Z,9.93
2023-05-23T17:46:08.809Z,13.48
2023-05-23T17:51:11.420Z,18.58
2023-05-23T17:56:13.887Z,15.55
2023-05-23T18:01:16.819Z,14.00
2023-05-23T18:06:19.305Z,15.20
2023-05-23T18:11:23.131Z,12.52
2023-05-23T18:16:25.933Z,14.15
2023-05-23T18:21:28.924Z,11.85
2023-05-23T18:26:31.714Z,11.07
2023-05-23T18:31:34.285Z,14.30
2023-05-23T18:36:36.860Z,14.55
2023-05-23T18:41:39.820Z,15.93
2023-05-23T18:46:42.413Z,13.27
2023-05-23T18:51:45.682Z,13.85
2023-05-23T18:56:48.100Z,16.88
2023-05-23T19:01:50.729Z,16.20
2023-05-23T19:06:53.889Z,18.05
2023-05-23T19:11:56.376Z,17.95
2023-05-23T19:17:00.063Z,17.80
2023-05-23T19:22:02.622Z,18.08
2023-05-23T19:27:05.354Z,17.40
2023-05-23T19:32:08.035Z,17.15
2023-05-23T19:37:11.167Z,20.58
2023-05-23T19:42:13.712Z,19.02
2023-05-23T19:47:16.528Z,20.05
2023-05-23T19:52:19.177Z,25.30
2023-05-23T19:57:22.056Z,20.48
2023-05-23T20:02:24.733Z,30.67
2023-05-23T20:07:28.436Z,28.97
2023-05-23T20:12:30.976Z,34.20
2023-05-23T20:17:34.886Z,14.83
2023-05-23T20:22:37.798Z,15.25
2023-05-23T20:33:18.549Z,12.43
2023-05-23T20:38:21.212Z,8.93
2023-05-23T20:43:24.255Z,12.05
2023-05-23T20:48:29.178Z,16.27
2023-05-23T20:53:35.062Z,13.65
2023-05-23T20:58:38.206Z,21.85
2023-05-23T21:03:40.946Z,12.90
2023-05-23T21:08:43.460Z,14.70
2023-05-23T21:19:32.658Z,17.10
2023-05-23T21:24:35.271Z,14.82
2023-05-23T21:29:37.776Z,12.90
2023-05-23T21:34:40.288Z,18.48
2023-05-23T21:39:51.437Z,15.10
2023-05-23T21:44:54.664Z,12.98
2023-05-23T21:49:57.308Z,12.45
2023-05-23T21:54:59.839Z,13.95
2023-05-23T22:00:02.442Z,13.38
2023-05-23T22:05:15.368Z,14.35
2023-05-23T22:10:17.886Z,12.15
2023-05-23T22:15:20.415Z,13.13
2023-05-23T22:20:23.544Z,12.75
2023-05-23T22:25:25.927Z,10.85
2023-05-23T22:30:28.870Z,12.82
2023-05-23T22:35:32.109Z,15.73
2023-05-23T22:40:34.636Z,14.93
2023-05-23T22:45:42.978Z,14.75
2023-05-23T22:50:45.769Z,14.07
2023-05-23T22:55:51.661Z,13.85
2023-05-23T23:00:54.275Z,13.77
2023-05-23T23:05:57.578Z,12.70
2023-05-23T23:11:00.160Z,15.30
2023-05-23T23:16:03.977Z,13.98
2023-05-23T23:21:06.477Z,14.40
2023-05-23T23:26:09.038Z,11.05
2023-05-23T23:31:11.601Z,11.05
2023-05-23T23:36:14.288Z,10.45
2023-05-23T23:41:16.935Z,10.27
2023-05-23T23:46:20.993Z,11.93
2023-05-23T23:51:23.917Z,10.20
2023-05-23T23:56:26.458Z,11.98
